Have a Safe July 4th! 

Flight Track Log - Related Links

Times and Time Zones

All times are in EDT time to prevent confusion due to time zone crossing. See the GTI192 flight status page for this flight to view local times or setup timezone preferences in your user account.

Time Position Orientation Groundspeed Altitude Reporting Facility
EDT Latitude Longitude Course Direction KTS MPH feet Rate Location/Type
Fri 12:37:47 AM 41.5547 -83.7828 256° West 205 236 5,100  Level Cleveland Center
Fri 12:38:47 AM 41.5028 -83.8411 220° Southwest 240 276 8,500 2,650 Climbing Cleveland Center
Fri 12:39:47 AM 41.4467 -83.9075 222° Southwest 246 283 10,400 2,750 Climbing Cleveland Center
Fri 12:40:47 AM 41.4000 -84.0075 238° Southwest 292 336 14,000 1,149 Climbing Cleveland Center
Fri 12:42:00 AM 41.2246 -84.1649 256° West  Level FlightAware Approximate
Fri 12:42:55 AM 41.1719 -84.1081 198° South 408 470 14,000  Level Indianapolis Center
Fri 12:43:55 AM 41.0667 -84.1314 189° South 386 444 14,000  Level Indianapolis Center
Fri 12:44:56 AM 40.9636 -84.1636 193° South 382 440 14,000  Level Indianapolis Center
Fri 12:45:56 AM 40.8603 -84.1928 192° South 380 437 14,000  Level Indianapolis Center
Fri 12:46:57 AM 40.7564 -84.2211 192° South 379 436 14,000  Level Indianapolis Center
Fri 12:47:57 AM 40.6525 -84.2519 193° South 380 437 14,000  Level Indianapolis Center
Fri 12:48:58 AM 40.5483 -84.2814 192° South 380 437 14,000  Level Indianapolis Center
Fri 12:49:58 AM 40.4433 -84.3106 192° South 382 440 14,000  Level Indianapolis Center
Fri 12:50:58 AM 40.3397 -84.3403 192° South 381 438 14,000  Level Indianapolis Center
Fri 12:51:59 AM 40.2350 -84.3692 192° South 381 438 14,000  Level Indianapolis Center
Fri 12:52:59 AM 40.1297 -84.3981 192° South 384 442 14,000  Level Indianapolis Center
Fri 12:54:00 AM 40.0242 -84.4275 192° South 385 443 14,000  Level Indianapolis Center
Fri 12:55:00 AM 39.9181 -84.4594 193° South 388 447 14,000 -248 Level Indianapolis Center
Fri 12:56:01 AM 39.8131 -84.4914 193° South 387 445 13,500 -744 Descending Indianapolis Center
Fri 12:57:01 AM 39.7100 -84.5200 192° South 381 438 12,500 -1,250 Descending Indianapolis Center
Fri 12:58:01 AM 39.6094 -84.5439 190° South 371 427 11,000 -738 Descending Indianapolis Center
Fri 12:59:03 AM 39.5083 -84.5753 193° South 371 427 11,000  Level Indianapolis Center
Fri 01:00:03 AM 39.4239 -84.6481 214° Southwest 365 420 11,000 -403 Level Indianapolis Center
Fri 01:01:02 AM 39.3500 -84.7167 216° Southwest 314 361 10,200 -958 Descending Cincinnati TRACON
Fri 01:02:02 AM 39.2833 -84.7667 210° Southwest 254 292 9,100 -1,750 Descending Cincinnati TRACON
Fri 01:03:02 AM 39.2333 -84.8000 207° Southwest 243 280 6,700 -1,632 Descending Cincinnati TRACON
Fri 01:03:56 AM 39.1833 -84.8500 218° Southwest 247 284 6,000 -842 Descending Cincinnati TRACON
Fri 01:04:56 AM 39.1333 -84.9000 218° Southwest 215 247 5,100 -1,250 Descending Cincinnati TRACON
Fri 01:05:56 AM 39.0667 -84.9000 180° South 208 239 3,500 -842 Descending Cincinnati TRACON
Fri 01:06:50 AM 39.0500 -84.8500 113° Southeast 158 182 3,500 -417 Level Cincinnati TRACON
Fri 01:07:51 AM 39.0500 -84.8000 90° East 143 165 2,700 -850 Descending Cincinnati TRACON
Fri 01:08:50 AM 39.0500 -84.7500 90° East 132 152 1,800 -768 Descending Cincinnati TRACON
Fri 01:09:56 AM 39.0500 -84.7000 90° East 112 129 1,100 -636 Descending Cincinnati TRACON

Login

Don't have an account? Register now (free) for customized features, flight alerts, and more!